sensor_id;sensor_type;location;lat;lon;timestamp;pressure;altitude;pressure_sealevel;temperature;humidity
37298;BME280;30517;51.932;4.278;2023-03-23T00:00:33;100121.13;;;13.17;69.66
37298;BME280;30517;51.932;4.278;2023-03-23T00:03:13;100129.03;;;13.18;69.30
37298;BME280;30517;51.932;4.278;2023-03-23T00:05:54;100121.09;;;13.18;69.61
37298;BME280;30517;51.932;4.278;2023-03-23T00:08:39;100132.56;;;13.17;69.47
37298;BME280;30517;51.932;4.278;2023-03-23T00:11:26;100130.81;;;13.18;69.67
37298;BME280;30517;51.932;4.278;2023-03-23T00:14:09;100101.63;;;13.19;69.22
37298;BME280;30517;51.932;4.278;2023-03-23T00:16:53;100109.59;;;13.19;69.20
37298;BME280;30517;51.932;4.278;2023-03-23T00:19:35;100094.63;;;13.18;69.12
37298;BME280;30517;51.932;4.278;2023-03-23T00:22:25;100101.63;;;13.19;69.46
37298;BME280;30517;51.932;4.278;2023-03-23T00:25:08;100097.19;;;13.20;69.40
37298;BME280;30517;51.932;4.278;2023-03-23T00:27:49;100106.00;;;13.20;69.35
37298;BME280;30517;51.932;4.278;2023-03-23T00:30:30;100100.72;;;13.20;69.23
37298;BME280;30517;51.932;4.278;2023-03-23T00:33:11;100031.38;;;12.70;69.23
37298;BME280;30517;51.932;4.278;2023-03-23T00:35:52;100104.25;;;13.21;69.67
37298;BME280;30517;51.932;4.278;2023-03-23T00:38:34;100089.25;;;13.20;69.17
37298;BME280;30517;51.932;4.278;2023-03-23T00:41:15;100085.72;;;13.21;69.20
37298;BME280;30517;51.932;4.278;2023-03-23T00:43:57;100089.22;;;13.21;69.54
37298;BME280;30517;51.932;4.278;2023-03-23T00:46:40;100095.41;;;13.22;69.20
37298;BME280;30517;51.932;4.278;2023-03-23T00:49:25;100095.41;;;13.22;69.27
37298;BME280;30517;51.932;4.278;2023-03-23T00:52:06;100096.25;;;13.22;69.35
37298;BME280;30517;51.932;4.278;2023-03-23T00:54:47;100098.91;;;13.22;69.42
37298;BME280;30517;51.932;4.278;2023-03-23T00:57:27;100101.56;;;13.22;69.45
37298;BME280;30517;51.932;4.278;2023-03-23T01:00:08;100090.97;;;13.22;69.16
37298;BME280;30517;51.932;4.278;2023-03-23T01:02:52;100075.94;;;13.23;69.02
37298;BME280;30517;51.932;4.278;2023-03-23T01:05:36;100075.06;;;13.22;69.34
37298;BME280;30517;51.932;4.278;2023-03-23T01:08:16;100061.81;;;13.24;69.51
37298;BME280;30517;51.932;4.278;2023-03-23T01:11:02;100065.41;;;13.21;69.71
37298;BME280;30517;51.932;4.278;2023-03-23T01:13:43;100059.19;;;13.22;69.24
37298;BME280;30517;51.932;4.278;2023-03-23T01:16:24;100071.53;;;13.23;69.15
37298;BME280;30517;51.932;4.278;2023-03-23T01:19:05;100058.28;;;13.23;69.30
37298;BME280;30517;51.932;4.278;2023-03-23T01:21:46;100054.75;;;13.23;69.39
37298;BME280;30517;51.932;4.278;2023-03-23T01:24:26;100060.03;;;13.23;69.22
37298;BME280;30517;51.932;4.278;2023-03-23T01:27:07;100062.66;;;13.24;69.17
37298;BME280;30517;51.932;4.278;2023-03-23T01:29:48;100053.88;;;13.22;69.14
37298;BME280;30517;51.932;4.278;2023-03-23T01:32:29;100053.84;;;13.24;69.24
37298;BME280;30517;51.932;4.278;2023-03-23T01:35:12;100058.22;;;13.25;69.23
37298;BME280;30517;51.932;4.278;2023-03-23T01:37:53;100054.72;;;13.24;69.01
37298;BME280;30517;51.932;4.278;2023-03-23T01:40:34;100049.44;;;13.24;69.18
37298;BME280;30517;51.932;4.278;2023-03-23T01:43:15;100041.47;;;13.24;69.18
37298;BME280;30517;51.932;4.278;2023-03-23T01:45:56;100035.31;;;13.24;69.61
37298;BME280;30517;51.932;4.278;2023-03-23T01:48:37;100043.28;;;13.24;69.02
37298;BME280;30517;51.932;4.278;2023-03-23T01:51:18;100032.69;;;13.24;69.14
37298;BME280;30517;51.932;4.278;2023-03-23T01:54:00;100041.47;;;13.24;69.43
37298;BME280;30517;51.932;4.278;2023-03-23T01:56:45;100045.00;;;13.25;69.49
37298;BME280;30517;51.932;4.278;2023-03-23T01:59:28;100041.47;;;13.24;69.71
37298;BME280;30517;51.932;4.278;2023-03-23T02:02:09;100054.72;;;13.24;69.48
37298;BME280;30517;51.932;4.278;2023-03-23T02:04:50;100038.84;;;13.24;69.23
37298;BME280;30517;51.932;4.278;2023-03-23T02:07:32;100044.13;;;13.26;69.53
37298;BME280;30517;51.932;4.278;2023-03-23T02:10:13;100046.78;;;13.26;69.07
37298;BME280;30517;51.932;4.278;2023-03-23T02:12:54;100049.44;;;13.26;69.37
37298;BME280;30517;51.932;4.278;2023-03-23T02:15:40;100050.28;;;13.26;69.17
37298;BME280;30517;51.932;4.278;2023-03-23T02:18:39;100052.94;;;13.26;69.04
37298;BME280;30517;51.932;4.278;2023-03-23T02:24:13;100044.13;;;13.26;69.28
37298;BME280;30517;51.932;4.278;2023-03-23T02:27:01;100030.91;;;13.26;69.40
37298;BME280;30517;51.932;4.278;2023-03-23T02:32:52;100045.00;;;13.26;69.08
37298;BME280;30517;51.932;4.278;2023-03-23T02:35:42;100025.59;;;13.26;69.46
37298;BME280;30517;51.932;4.278;2023-03-23T02:38:42;100040.56;;;13.27;69.48
37298;BME280;30517;51.932;4.278;2023-03-23T02:41:27;99946.53;;;12.76;69.46
37298;BME280;30517;51.932;4.278;2023-03-23T02:44:09;100039.72;;;13.26;68.94
37298;BME280;30517;51.932;4.278;2023-03-23T02:46:51;100035.28;;;13.27;69.27
37298;BME280;30517;51.932;4.278;2023-03-23T02:49:34;100044.94;;;13.28;69.10
37298;BME280;30517;51.932;4.278;2023-03-23T02:52:21;100031.69;;;13.28;69.43
37298;BME280;30517;51.932;4.278;2023-03-23T02:55:03;100037.91;;;13.28;69.63
37298;BME280;30517;51.932;4.278;2023-03-23T02:57:45;100039.66;;;13.28;69.02
37298;BME280;30517;51.932;4.278;2023-03-23T03:00:26;100038.78;;;13.27;69.38
37298;BME280;30517;51.932;4.278;2023-03-23T03:03:09;100029.03;;;13.30;69.53
37298;BME280;30517;51.932;4.278;2023-03-23T03:08:48;100041.44;;;13.27;69.48
37298;BME280;30517;51.932;4.278;2023-03-23T03:11:31;100042.28;;;13.28;69.38
37298;BME280;30517;51.932;4.278;2023-03-23T03:14:23;100041.41;;;13.29;68.99
37298;BME280;30517;51.932;4.278;2023-03-23T03:17:11;100052.03;;;13.27;69.26
37298;BME280;30517;51.932;4.278;2023-03-23T03:19:56;100062.59;;;13.29;69.28
37298;BME280;30517;51.932;4.278;2023-03-23T03:22:38;100026.38;;;13.30;69.37
37298;BME280;30517;51.932;4.278;2023-03-23T03:25:23;100050.22;;;13.30;69.08
37298;BME280;30517;51.932;4.278;2023-03-23T03:28:07;100052.00;;;13.29;69.17
37298;BME280;30517;51.932;4.278;2023-03-23T03:30:53;100052.00;;;13.29;69.36
37298;BME280;30517;51.932;4.278;2023-03-23T03:33:35;100044.94;;;13.28;69.56
37298;BME280;30517;51.932;4.278;2023-03-23T03:36:24;100055.50;;;13.30;69.58
37298;BME280;30517;51.932;4.278;2023-03-23T03:39:07;100038.75;;;13.29;68.90
37298;BME280;30517;51.932;4.278;2023-03-23T03:41:49;100055.50;;;13.30;69.21
37298;BME280;30517;51.932;4.278;2023-03-23T03:44:30;100038.75;;;13.29;69.72
37298;BME280;30517;51.932;4.278;2023-03-23T03:47:11;100033.47;;;13.29;69.58
37298;BME280;30517;51.932;4.278;2023-03-23T03:49:51;100029.06;;;13.28;69.62
37298;BME280;30517;51.932;4.278;2023-03-23T03:52:33;100047.66;;;13.26;69.28
37298;BME280;30517;51.932;4.278;2023-03-23T03:55:14;100045.00;;;13.26;69.57
37298;BME280;30517;51.932;4.278;2023-03-23T03:57:56;100059.97;;;13.27;69.28
37298;BME280;30517;51.932;4.278;2023-03-23T04:00:38;100062.63;;;13.27;69.35
37298;BME280;30517;51.932;4.278;2023-03-23T04:03:19;100056.47;;;13.27;69.46
37298;BME280;30517;51.932;4.278;2023-03-23T04:06:00;100065.25;;;13.27;69.13
37298;BME280;30517;51.932;4.278;2023-03-23T04:08:41;100059.09;;;13.27;69.45
37298;BME280;30517;51.932;4.278;2023-03-23T04:11:22;100051.16;;;13.25;69.52
37298;BME280;30517;51.932;4.278;2023-03-23T04:14:03;100062.63;;;13.27;69.41
37298;BME280;30517;51.932;4.278;2023-03-23T04:16:44;100060.88;;;13.26;69.06
37298;BME280;30517;51.932;4.278;2023-03-23T04:19:25;100065.31;;;13.26;68.86
37298;BME280;30517;51.932;4.278;2023-03-23T04:22:08;100075.91;;;13.24;69.06
37298;BME280;30517;51.932;4.278;2023-03-23T04:24:48;100082.06;;;13.25;69.54
37298;BME280;30517;51.932;4.278;2023-03-23T04:27:29;100090.97;;;13.22;69.13
37298;BME280;30517;51.932;4.278;2023-03-23T04:30:10;100094.47;;;13.23;69.02
37298;BME280;30517;51.932;4.278;2023-03-23T04:32:53;100099.75;;;13.24;69.18
37298;BME280;30517;51.932;4.278;2023-03-23T04:35:36;100092.72;;;13.23;69.51
37298;BME280;30517;51.932;4.278;2023-03-23T04:38:17;100092.75;;;13.22;69.36
37298;BME280;30517;51.932;4.278;2023-03-23T04:41:03;100094.53;;;13.21;69.47
37298;BME280;30517;51.932;4.278;2023-03-23T04:43:44;100110.41;;;13.21;69.03
37298;BME280;30517;51.932;4.278;2023-03-23T04:46:25;100102.47;;;13.21;69.44
37298;BME280;30517;51.932;4.278;2023-03-23T04:49:08;100088.41;;;13.19;69.61
37298;BME280;30517;51.932;4.278;2023-03-23T04:51:49;100085.75;;;13.19;69.54
37298;BME280;30517;51.932;4.278;2023-03-23T04:54:30;100097.19;;;13.20;69.32
37298;BME280;30517;51.932;4.278;2023-03-23T04:57:11;100098.06;;;13.20;69.41
37298;BME280;30517;51.932;4.278;2023-03-23T04:59:52;100095.47;;;13.19;69.20
37298;BME280;30517;51.932;4.278;2023-03-23T05:02:33;100100.72;;;13.20;68.96
37298;BME280;30517;51.932;4.278;2023-03-23T05:05:14;100097.25;;;13.18;69.28
37298;BME280;30517;51.932;4.278;2023-03-23T05:07:55;100099.91;;;13.18;69.22
37298;BME280;30517;51.932;4.278;2023-03-23T05:10:35;100099.91;;;13.18;69.14
37298;BME280;30517;51.932;4.278;2023-03-23T05:13:16;100104.34;;;13.18;69.21
37298;BME280;30517;51.932;4.278;2023-03-23T05:15:57;100107.00;;;13.16;69.80
37298;BME280;30517;51.932;4.278;2023-03-23T05:18:38;100113.22;;;13.15;69.47
37298;BME280;30517;51.932;4.278;2023-03-23T05:21:19;100106.16;;;13.14;69.49
37298;BME280;30517;51.932;4.278;2023-03-23T05:24:00;100120.31;;;13.13;69.32
37298;BME280;30517;51.932;4.278;2023-03-23T05:26:41;100123.88;;;13.12;69.20
37298;BME280;30517;51.932;4.278;2023-03-23T05:29:22;100137.09;;;13.12;69.33
37298;BME280;30517;51.932;4.278;2023-03-23T05:32:04;100120.41;;;13.10;69.77
37298;BME280;30517;51.932;4.278;2023-03-23T05:34:45;100123.06;;;13.10;69.12
37298;BME280;30517;51.932;4.278;2023-03-23T05:37:28;100129.25;;;13.09;69.64
37298;BME280;30517;51.932;4.278;2023-03-23T05:40:12;100145.97;;;13.11;69.40
37298;BME280;30517;51.932;4.278;2023-03-23T05:42:53;100143.38;;;13.10;69.68
37298;BME280;30517;51.932;4.278;2023-03-23T05:45:35;100133.66;;;13.10;69.09
37298;BME280;30517;51.932;4.278;2023-03-23T05:48:16;100133.66;;;13.10;69.11
37298;BME280;30517;51.932;4.278;2023-03-23T05:50:57;100135.47;;;13.08;69.76
37298;BME280;30517;51.932;4.278;2023-03-23T05:53:38;100148.66;;;13.10;69.68
37298;BME280;30517;51.932;4.278;2023-03-23T05:56:18;100146.88;;;13.10;69.68
37298;BME280;30517;51.932;4.278;2023-03-23T05:58:59;100141.59;;;13.10;69.69
37298;BME280;30517;51.932;4.278;2023-03-23T06:01:40;100153.06;;;13.09;69.21
37298;BME280;30517;51.932;4.278;2023-03-23T06:04:21;100154.00;;;13.08;69.60
37298;BME280;30517;51.932;4.278;2023-03-23T06:07:04;100156.63;;;13.08;69.36
37298;BME280;30517;51.932;4.278;2023-03-23T06:09:45;100177.81;;;13.08;69.42
37298;BME280;30517;51.932;4.278;2023-03-23T06:12:26;100185.78;;;13.06;69.29
37298;BME280;30517;51.932;4.278;2023-03-23T06:15:07;100178.75;;;13.05;69.55
37298;BME280;30517;51.932;4.278;2023-03-23T06:17:48;100188.56;;;13.02;69.69
37298;BME280;30517;51.932;4.278;2023-03-23T06:20:30;100188.81;;;12.90;70.03
37298;BME280;30517;51.932;4.278;2023-03-23T06:23:11;100186.88;;;12.98;69.91
37298;BME280;30517;51.932;4.278;2023-03-23T06:25:55;100191.22;;;13.00;69.51
37298;BME280;30517;51.932;4.278;2023-03-23T06:28:38;100186.78;;;13.02;69.40
37298;BME280;30517;51.932;4.278;2023-03-23T06:31:19;100192.00;;;13.04;69.44
37298;BME280;30517;51.932;4.278;2023-03-23T06:34:00;100186.72;;;13.04;69.61
37298;BME280;30517;51.932;4.278;2023-03-23T06:36:41;100192.84;;;13.06;69.09
37298;BME280;30517;51.932;4.278;2023-03-23T06:39:23;100203.50;;;13.04;69.12
37298;BME280;30517;51.932;4.278;2023-03-23T06:42:04;100211.44;;;13.04;69.30
37298;BME280;30517;51.932;4.278;2023-03-23T06:44:49;100210.53;;;13.04;68.81
37298;BME280;30517;51.932;4.278;2023-03-23T06:47:30;100192.94;;;13.03;68.84
37298;BME280;30517;51.932;4.278;2023-03-23T06:50:10;100213.19;;;13.04;69.50
37298;BME280;30517;51.932;4.278;2023-03-23T06:52:51;100195.59;;;13.03;69.06
37298;BME280;30517;51.932;4.278;2023-03-23T06:55:32;100207.94;;;13.02;69.35
37298;BME280;30517;51.932;4.278;2023-03-23T06:58:12;100210.59;;;13.02;69.41
37298;BME280;30517;51.932;4.278;2023-03-23T07:00:54;100207.97;;;13.01;68.97
37298;BME280;30517;51.932;4.278;2023-03-23T07:03:36;100206.25;;;13.00;68.99
37298;BME280;30517;51.932;4.278;2023-03-23T07:06:17;100194.72;;;13.01;68.95
37298;BME280;30517;51.932;4.278;2023-03-23T07:08:59;100200.94;;;13.00;69.40
37298;BME280;30517;51.932;4.278;2023-03-23T07:11:40;100205.31;;;13.01;69.08
37298;BME280;30517;51.932;4.278;2023-03-23T07:14:21;100213.28;;;13.01;69.38
37298;BME280;30517;51.932;4.278;2023-03-23T07:17:02;100217.69;;;13.00;69.38
37298;BME280;30517;51.932;4.278;2023-03-23T07:19:43;100223.91;;;12.99;68.99
37298;BME280;30517;51.932;4.278;2023-03-23T07:22:23;100231.84;;;12.99;68.87
37298;BME280;30517;51.932;4.278;2023-03-23T07:25:04;100214.19;;;13.00;69.20
37298;BME280;30517;51.932;4.278;2023-03-23T07:27:45;100217.78;;;12.96;69.35
37298;BME280;30517;51.932;4.278;2023-03-23T07:30:26;100214.28;;;12.95;69.56
37298;BME280;30517;51.932;4.278;2023-03-23T07:33:09;100213.41;;;12.96;68.87
37298;BME280;30517;51.932;4.278;2023-03-23T07:35:50;100224.84;;;12.97;69.36
37298;BME280;30517;51.932;4.278;2023-03-23T07:38:31;100212.47;;;12.99;69.26
37298;BME280;30517;51.932;4.278;2023-03-23T07:41:12;100227.44;;;12.98;69.29
37298;BME280;30517;51.932;4.278;2023-03-23T07:43:53;100218.63;;;12.98;69.14
37298;BME280;30517;51.932;4.278;2023-03-23T07:46:34;100229.22;;;12.98;68.94
37298;BME280;30517;51.932;4.278;2023-03-23T07:49:15;100232.78;;;12.97;68.91
37298;BME280;30517;51.932;4.278;2023-03-23T07:51:57;100233.66;;;12.97;69.25
37298;BME280;30517;51.932;4.278;2023-03-23T07:54:37;100231.94;;;12.96;68.72
37298;BME280;30517;51.932;4.278;2023-03-23T07:57:18;100237.16;;;12.98;68.78
37298;BME280;30517;51.932;4.278;2023-03-23T07:59:59;100238.03;;;12.98;69.11
37298;BME280;30517;51.932;4.278;2023-03-23T08:02:40;100250.41;;;12.98;68.93
37298;BME280;30517;51.932;4.278;2023-03-23T08:05:21;100244.25;;;12.96;69.11
37298;BME280;30517;51.932;4.278;2023-03-23T08:08:03;100248.66;;;12.97;69.12
37298;BME280;30517;51.932;4.278;2023-03-23T08:10:44;100251.31;;;12.97;69.01
37298;BME280;30517;51.932;4.278;2023-03-23T08:13:25;100256.63;;;12.97;68.59
37298;BME280;30517;51.932;4.278;2023-03-23T08:16:06;100262.78;;;12.96;68.55
37298;BME280;30517;51.932;4.278;2023-03-23T08:18:49;100250.47;;;12.95;68.49
37298;BME280;30517;51.932;4.278;2023-03-23T08:21:30;100261.03;;;12.96;68.65
37298;BME280;30517;51.932;4.278;2023-03-23T08:24:10;100246.03;;;12.95;68.76
37298;BME280;30517;51.932;4.278;2023-03-23T08:26:51;100264.56;;;12.97;69.08
37298;BME280;30517;51.932;4.278;2023-03-23T08:29:32;100257.50;;;12.96;68.88
37298;BME280;30517;51.932;4.278;2023-03-23T08:32:13;100267.19;;;12.97;68.72
37298;BME280;30517;51.932;4.278;2023-03-23T08:34:54;100274.28;;;12.96;69.04
37298;BME280;30517;51.932;4.278;2023-03-23T08:37:36;100277.81;;;12.95;68.81
37298;BME280;30517;51.932;4.278;2023-03-23T08:40:17;100279.56;;;12.96;69.23
37298;BME280;30517;51.932;4.278;2023-03-23T08:42:59;100293.69;;;12.97;69.01
37298;BME280;30517;51.932;4.278;2023-03-23T08:45:39;100299.84;;;12.97;68.95
37298;BME280;30517;51.932;4.278;2023-03-23T08:48:21;100298.97;;;12.97;68.63
37298;BME280;30517;51.932;4.278;2023-03-23T08:51:03;100288.38;;;12.97;68.43
37298;BME280;30517;51.932;4.278;2023-03-23T08:53:44;100294.53;;;12.97;68.87
37298;BME280;30517;51.932;4.278;2023-03-23T08:56:24;100282.16;;;12.98;68.85
37298;BME280;30517;51.932;4.278;2023-03-23T08:59:06;100284.81;;;12.98;69.09
37298;BME280;30517;51.932;4.278;2023-03-23T09:01:47;100284.81;;;12.98;68.42
37298;BME280;30517;51.932;4.278;2023-03-23T09:04:28;100281.31;;;12.97;68.85
37298;BME280;30517;51.932;4.278;2023-03-23T09:07:10;100279.50;;;12.99;68.58
37298;BME280;30517;51.932;4.278;2023-03-23T09:09:52;100296.25;;;13.00;68.59
37298;BME280;30517;51.932;4.278;2023-03-23T09:12:33;100282.16;;;12.99;68.71
37298;BME280;30517;51.932;4.278;2023-03-23T09:15:15;100282.97;;;13.01;68.52
37298;BME280;30517;51.932;4.278;2023-03-23T09:17:56;100290.88;;;13.03;68.49
37298;BME280;30517;51.932;4.278;2023-03-23T09:20:37;100282.09;;;13.02;68.74
37298;BME280;30517;51.932;4.278;2023-03-23T09:23:18;100277.66;;;13.03;68.47
37298;BME280;30517;51.932;4.278;2023-03-23T09:26:00;100276.81;;;13.01;68.73
37298;BME280;30517;51.932;4.278;2023-03-23T09:28:41;100293.59;;;13.00;68.43
37298;BME280;30517;51.932;4.278;2023-03-23T09:31:24;100301.56;;;13.00;68.92
37298;BME280;30517;51.932;4.278;2023-03-23T09:34:08;100305.13;;;12.99;68.66
37298;BME280;30517;51.932;4.278;2023-03-23T09:36:49;100300.69;;;12.98;68.47
37298;BME280;30517;51.932;4.278;2023-03-23T09:39:31;100313.00;;;13.00;68.99
37298;BME280;30517;51.932;4.278;2023-03-23T09:48:19;100321.28;;;12.83;68.70
37298;BME280;30517;51.932;4.278;2023-03-23T09:54:39;100324.75;;;12.87;69.39
37298;BME280;30517;51.932;4.278;2023-03-23T09:57:00;100313.22;;;12.91;69.74
37298;BME280;30517;51.932;4.278;2023-03-23T10:00:04;100336.06;;;12.95;69.72
37298;BME280;30517;51.932;4.278;2023-03-23T10:03:00;100336.88;;;12.99;69.14
37298;BME280;30517;51.932;4.278;2023-03-23T10:05:45;100335.06;;;13.01;69.38
37298;BME280;30517;51.932;4.278;2023-03-23T10:08:27;100346.50;;;13.03;68.92
37298;BME280;30517;51.932;4.278;2023-03-23T10:11:19;100334.94;;;13.07;69.38
37298;BME280;30517;51.932;4.278;2023-03-23T10:19:54;100336.47;;;13.17;68.86
37298;BME280;30517;51.932;4.278;2023-03-23T10:22:42;100328.53;;;13.17;68.43
37298;BME280;30517;51.932;4.278;2023-03-23T10:25:28;100329.44;;;13.16;68.84
37298;BME280;30517;51.932;4.278;2023-03-23T10:28:11;100336.47;;;13.17;68.57
37298;BME280;30517;51.932;4.278;2023-03-23T10:30:55;100343.53;;;13.18;68.50
37298;BME280;30517;51.932;4.278;2023-03-23T10:33:38;100344.41;;;13.19;68.33
37298;BME280;30517;51.932;4.278;2023-03-23T10:36:34;100339.97;;;13.19;68.85
37298;BME280;30517;51.932;4.278;2023-03-23T10:39:18;100345.28;;;13.19;68.50
37298;BME280;30517;51.932;4.278;2023-03-23T10:42:00;100345.19;;;13.22;68.27
37298;BME280;30517;51.932;4.278;2023-03-23T10:44:46;100348.69;;;13.24;68.81
37298;BME280;30517;51.932;4.278;2023-03-23T10:47:27;100339.88;;;13.24;68.22
37298;BME280;30517;51.932;4.278;2023-03-23T10:50:13;100346.94;;;13.26;68.34
37298;BME280;30517;51.932;4.278;2023-03-23T10:52:56;100340.72;;;13.27;68.26
37298;BME280;30517;51.932;4.278;2023-03-23T10:55:38;100331.03;;;13.26;68.33
37298;BME280;30517;51.932;4.278;2023-03-23T10:58:24;100345.13;;;13.28;68.79
37298;BME280;30517;51.932;4.278;2023-03-23T11:01:05;100338.03;;;13.29;68.49
37298;BME280;30517;51.932;4.278;2023-03-23T11:03:47;100338.84;;;13.31;68.52
37298;BME280;30517;51.932;4.278;2023-03-23T11:06:29;100338.84;;;13.33;68.59
37298;BME280;30517;51.932;4.278;2023-03-23T11:09:16;100336.19;;;13.33;68.66
37298;BME280;30517;51.932;4.278;2023-03-23T11:11:57;100346.72;;;13.36;68.36
37298;BME280;30517;51.932;4.278;2023-03-23T11:14:38;100350.28;;;13.35;68.44
37298;BME280;30517;51.932;4.278;2023-03-23T11:17:23;100338.78;;;13.36;68.17
37298;BME280;30517;51.932;4.278;2023-03-23T11:20:11;100254.13;;;12.89;68.55
37298;BME280;30517;51.932;4.278;2023-03-23T11:22:55;100329.88;;;13.38;68.67
37298;BME280;30517;51.932;4.278;2023-03-23T11:25:58;100331.66;;;13.38;68.39
37298;BME280;30517;51.932;4.278;2023-03-23T11:28:46;100319.28;;;13.40;68.43
37298;BME280;30517;51.932;4.278;2023-03-23T11:31:33;100329.81;;;13.41;68.39
37298;BME280;30517;51.932;4.278;2023-03-23T11:34:16;100318.28;;;13.44;68.67
37298;BME280;30517;51.932;4.278;2023-03-23T11:37:00;100329.72;;;13.46;68.81
37298;BME280;30517;51.932;4.278;2023-03-23T11:39:53;100330.59;;;13.46;68.78
37298;BME280;30517;51.932;4.278;2023-03-23T11:42:36;100334.94;;;13.49;69.12
37298;BME280;30517;51.932;4.278;2023-03-23T11:45:19;100337.53;;;13.52;68.74
37298;BME280;30517;51.932;4.278;2023-03-23T11:51:15;100345.47;;;13.52;68.92
37298;BME280;30517;51.932;4.278;2023-03-23T11:56:45;100333.91;;;13.56;68.65
37298;BME280;30517;51.932;4.278;2023-03-23T11:59:35;100337.38;;;13.58;68.64
37298;BME280;30517;51.932;4.278;2023-03-23T12:02:32;100335.56;;;13.60;68.88
37298;BME280;30517;51.932;4.278;2023-03-23T12:05:32;100331.13;;;13.62;68.91
37298;BME280;30517;51.932;4.278;2023-03-23T12:11:12;100329.31;;;13.64;68.87
37298;BME280;30517;51.932;4.278;2023-03-23T12:20:06;100327.44;;;13.69;68.66
37298;BME280;30517;51.932;4.278;2023-03-23T12:25:42;100321.13;;;13.73;68.55
37298;BME280;30517;51.932;4.278;2023-03-23T12:31:11;100317.47;;;13.79;68.92
37298;BME280;30517;51.932;4.278;2023-03-23T12:36:56;100312.06;;;13.84;68.57
37298;BME280;30517;51.932;4.278;2023-03-23T12:45:43;100313.66;;;13.91;68.65
37298;BME280;30517;51.932;4.278;2023-03-23T12:48:34;100324.13;;;13.95;68.81
37298;BME280;30517;51.932;4.278;2023-03-23T12:54:30;100345.25;;;14.00;68.87
37298;BME280;30517;51.932;4.278;2023-03-23T12:57:15;100338.06;;;14.04;68.71
37298;BME280;30517;51.932;4.278;2023-03-23T13:02:44;100369.78;;;14.10;68.75
37298;BME280;30517;51.932;4.278;2023-03-23T13:05:29;100350.25;;;14.12;68.82
37298;BME280;30517;51.932;4.278;2023-03-23T13:08:18;100349.25;;;14.18;68.71
37298;BME280;30517;51.932;4.278;2023-03-23T13:11:03;100340.34;;;14.21;68.86
37298;BME280;30517;51.932;4.278;2023-03-23T13:13:47;100365.84;;;14.25;68.79
37298;BME280;30517;51.932;4.278;2023-03-23T13:22:29;100350.53;;;14.36;68.81
37298;BME280;30517;51.932;4.278;2023-03-23T13:25:17;100361.03;;;14.41;68.82
37298;BME280;30517;51.932;4.278;2023-03-23T13:27:59;100356.50;;;14.44;68.58
37298;BME280;30517;51.932;4.278;2023-03-23T13:30:52;100353.75;;;14.49;68.65
37298;BME280;30517;51.932;4.278;2023-03-23T13:33:34;100358.97;;;14.52;68.53
37298;BME280;30517;51.932;4.278;2023-03-23T13:36:53;100351.81;;;14.55;68.73
37298;BME280;30517;51.932;4.278;2023-03-23T13:47:41;100322.84;;;14.80;68.35
37298;BME280;30517;51.932;4.278;2023-03-23T13:50:25;100319.97;;;14.88;68.49
37298;BME280;30517;51.932;4.278;2023-03-23T13:53:13;100308.34;;;14.92;68.15
37298;BME280;30517;51.932;4.278;2023-03-23T13:56:05;100314.41;;;14.97;68.11
37298;BME280;30517;51.932;4.278;2023-03-23T13:58:50;100322.25;;;15.02;68.18
37298;BME280;30517;51.932;4.278;2023-03-23T14:01:37;100315.00;;;15.07;68.43
37298;BME280;30517;51.932;4.278;2023-03-23T14:04:22;100314.06;;;15.10;68.22
37298;BME280;30517;51.932;4.278;2023-03-23T14:07:11;100317.41;;;15.15;68.04
37298;BME280;30517;51.932;4.278;2023-03-23T14:09:52;100319.94;;;15.19;67.99
37298;BME280;30517;51.932;4.278;2023-03-23T14:12:33;100310.97;;;15.23;68.12
37298;BME280;30517;51.932;4.278;2023-03-23T14:15:15;100299.31;;;15.29;67.89
37298;BME280;30517;51.932;4.278;2023-03-23T14:17:56;100276.06;;;15.36;67.85
37298;BME280;30517;51.932;4.278;2023-03-23T14:20:37;100285.63;;;15.41;67.67
37298;BME280;30517;51.932;4.278;2023-03-23T14:23:19;100262.41;;;15.48;67.76
37298;BME280;30517;51.932;4.278;2023-03-23T14:26:06;100250.69;;;15.54;67.33
37298;BME280;30517;51.932;4.278;2023-03-23T14:28:50;100242.59;;;15.58;67.73
37298;BME280;30517;51.932;4.278;2023-03-23T14:31:31;100240.56;;;15.65;67.65
37298;BME280;30517;51.932;4.278;2023-03-23T14:34:13;100236.00;;;15.70;67.19
37298;BME280;30517;51.932;4.278;2023-03-23T14:36:55;100227.91;;;15.75;67.37
37298;BME280;30517;51.932;4.278;2023-03-23T14:39:37;100230.38;;;15.79;67.36
37298;BME280;30517;51.932;4.278;2023-03-23T14:42:26;100241.72;;;15.84;67.22
37298;BME280;30517;51.932;4.278;2023-03-23T14:45:11;100249.53;;;15.90;67.23
37298;BME280;30517;51.932;4.278;2023-03-23T14:48:02;100240.88;;;15.84;64.47
37298;BME280;30517;51.932;4.278;2023-03-23T14:51:00;100254.06;;;15.87;64.53
37298;BME280;30517;51.932;4.278;2023-03-23T14:53:44;100260.06;;;15.93;66.01
37298;BME280;30517;51.932;4.278;2023-03-23T14:56:31;100245.56;;;16.02;66.46
37298;BME280;30517;51.932;4.278;2023-03-23T14:59:12;100245.25;;;16.11;66.43
37298;BME280;30517;51.932;4.278;2023-03-23T15:01:53;100228.09;;;16.20;66.37
37298;BME280;30517;51.932;4.278;2023-03-23T15:04:34;100237.59;;;16.27;66.59
37298;BME280;30517;51.932;4.278;2023-03-23T15:07:14;100233.81;;;16.34;66.58
37298;BME280;30517;51.932;4.278;2023-03-23T15:09:57;100239.75;;;16.41;66.44
37298;BME280;30517;51.932;4.278;2023-03-23T15:12:39;100210.31;;;16.46;66.41
37298;BME280;30517;51.932;4.278;2023-03-23T15:15:27;100196.72;;;16.53;66.18
37298;BME280;30517;51.932;4.278;2023-03-23T15:18:22;100194.78;;;16.58;66.20
37298;BME280;30517;51.932;4.278;2023-03-23T15:21:08;100220.31;;;16.64;66.19
37298;BME280;30517;51.932;4.278;2023-03-23T15:23:49;100207.72;;;16.68;66.00
37298;BME280;30517;51.932;4.278;2023-03-23T15:26:31;100211.91;;;16.75;66.35